createdAt,value
2019-05-16T00:02:30.635Z,68.73
2019-05-16T00:05:00.957Z,58.43
2019-05-16T00:07:30.630Z,70.57
2019-05-16T00:10:00.274Z,67.13
2019-05-16T00:12:30.749Z,60.97
2019-05-16T00:15:00.933Z,54.87
2019-05-16T00:17:31.262Z,65.40
2019-05-16T00:20:01.668Z,65.37
2019-05-16T00:22:32.338Z,59.80
2019-05-16T00:25:02.558Z,57.33
2019-05-16T00:27:32.552Z,57.50
2019-05-16T00:30:02.447Z,60.80
2019-05-16T00:32:32.056Z,60.87
2019-05-16T00:35:02.176Z,69.93
2019-05-16T00:37:32.080Z,61.13
2019-05-16T00:40:01.847Z,60.00
2019-05-16T00:42:32.128Z,56.63
2019-05-16T00:45:02.104Z,61.27
2019-05-16T00:47:32.328Z,56.10
2019-05-16T00:50:03.095Z,56.43
2019-05-16T00:52:33.368Z,63.53
2019-05-16T00:55:03.714Z,57.57
2019-05-16T00:57:33.881Z,64.63
2019-05-16T01:00:04.109Z,55.47
2019-05-16T01:02:34.225Z,69.80
2019-05-16T01:05:05.175Z,55.77
2019-05-16T01:07:34.938Z,56.70
2019-05-16T01:10:05.938Z,54.93
2019-05-16T01:12:36.206Z,53.47
2019-05-16T01:15:08.894Z,51.73
2019-05-16T01:17:39.345Z,57.43
2019-05-16T01:20:09.942Z,58.90
2019-05-16T01:22:39.765Z,67.30
2019-05-16T01:25:09.772Z,61.70
2019-05-16T01:27:39.553Z,59.30
2019-05-16T01:30:09.926Z,59.33
2019-05-16T01:32:41.558Z,54.17
2019-05-16T01:35:11.703Z,55.87
2019-05-16T01:37:41.629Z,56.20
2019-05-16T01:40:12.525Z,52.73
2019-05-16T01:42:43.409Z,45.00
2019-05-16T01:45:14.210Z,48.60
2019-05-16T01:47:44.769Z,45.47
2019-05-16T01:50:18.176Z,48.90
2019-05-16T01:52:48.854Z,48.20
2019-05-16T01:55:19.360Z,49.73
2019-05-16T01:57:49.304Z,47.90
2019-05-16T02:00:24.795Z,43.37
2019-05-16T02:02:50.932Z,43.30
2019-05-16T02:05:21.442Z,45.90
2019-05-16T02:07:52.078Z,48.80
2019-05-16T02:10:23.575Z,47.83
2019-05-16T02:12:53.588Z,44.67
2019-05-16T02:15:24.012Z,44.30
2019-05-16T02:17:54.625Z,45.13
2019-05-16T02:20:24.662Z,43.00
2019-05-16T02:22:55.344Z,43.40
2019-05-16T02:25:27.586Z,38.93
2019-05-16T02:27:58.826Z,41.47
2019-05-16T02:30:31.282Z,43.43
2019-05-16T02:33:01.006Z,37.63
2019-05-16T02:35:32.652Z,41.87
2019-05-16T02:38:03.520Z,40.00
2019-05-16T02:40:33.164Z,40.93
2019-05-16T02:43:04.561Z,38.17
2019-05-16T02:45:34.736Z,38.83
2019-05-16T02:48:04.874Z,44.80
2019-05-16T02:50:36.722Z,47.70
2019-05-16T02:53:06.731Z,45.47
2019-05-16T02:55:37.092Z,44.47
2019-05-16T02:58:11.212Z,45.27
2019-05-16T03:00:42.701Z,45.60
2019-05-16T03:03:12.656Z,47.27
2019-05-16T03:05:45.240Z,45.50
2019-05-16T03:08:15.590Z,48.97
2019-05-16T03:10:47.153Z,45.37
2019-05-16T03:13:21.825Z,45.10
2019-05-16T03:15:52.920Z,49.37
2019-05-16T03:18:25.440Z,49.10
2019-05-16T03:20:55.930Z,46.77
2019-05-16T03:23:25.932Z,48.40
2019-05-16T03:25:56.004Z,49.53
2019-05-16T03:28:30.669Z,53.43
2019-05-16T03:31:04.714Z,47.70
2019-05-16T03:33:41.527Z,46.23
2019-05-16T03:36:05.806Z,45.20
2019-05-16T03:38:35.708Z,44.23
2019-05-16T03:41:06.435Z,46.87
2019-05-16T03:43:36.738Z,42.20
2019-05-16T03:46:06.420Z,43.33
2019-05-16T03:48:36.605Z,45.50
2019-05-16T03:51:11.039Z,41.33
2019-05-16T03:53:40.558Z,45.17
2019-05-16T03:56:11.253Z,49.00
2019-05-16T03:58:42.018Z,46.87
2019-05-16T04:01:12.486Z,38.20
2019-05-16T04:03:43.205Z,47.30
2019-05-16T04:06:13.281Z,46.70
2019-05-16T04:08:46.354Z,45.30
2019-05-16T04:11:22.208Z,45.10
2019-05-16T04:13:50.810Z,44.53
2019-05-16T04:16:21.067Z,45.20
2019-05-16T04:18:51.583Z,44.40
2019-05-16T04:21:22.534Z,38.97
2019-05-16T04:23:52.874Z,42.10
2019-05-16T04:26:22.900Z,43.90
2019-05-16T04:28:53.446Z,45.17
2019-05-16T04:31:23.026Z,48.60
2019-05-16T04:33:52.903Z,44.60
2019-05-16T04:36:23.603Z,46.30
2019-05-16T04:38:53.647Z,51.43
2019-05-16T04:41:23.570Z,52.70
2019-05-16T04:43:53.936Z,49.83
2019-05-16T04:46:24.254Z,48.50
2019-05-16T04:48:54.692Z,45.50
2019-05-16T04:51:24.700Z,57.10
2019-05-16T04:53:54.769Z,56.17
2019-05-16T04:56:24.358Z,61.70
2019-05-16T04:58:54.492Z,68.27
2019-05-16T05:01:24.233Z,67.70
2019-05-16T05:04:08.782Z,62.13
2019-05-16T05:06:27.109Z,69.67
2019-05-16T05:08:59.065Z,52.90
2019-05-16T05:11:30.651Z,52.30
2019-05-16T05:14:01.001Z,51.20
2019-05-16T05:16:33.796Z,75.57
2019-05-16T05:19:04.892Z,76.93
2019-05-16T05:21:35.835Z,72.90
2019-05-16T05:24:06.702Z,84.00
2019-05-16T05:26:37.537Z,118.27
2019-05-16T05:29:10.311Z,102.47
2019-05-16T05:31:44.518Z,122.30
2019-05-16T05:34:11.957Z,117.43
2019-05-16T05:36:42.476Z,93.40
2019-05-16T05:39:15.491Z,110.40
2019-05-16T05:41:45.283Z,86.90
2019-05-16T05:44:15.682Z,103.03
2019-05-16T05:46:45.644Z,78.50
2019-05-16T05:49:15.838Z,80.23
2019-05-16T05:51:45.572Z,125.97
2019-05-16T05:54:15.883Z,85.50
2019-05-16T05:56:45.910Z,76.57
2019-05-16T05:59:16.852Z,76.90
2019-05-16T06:01:46.830Z,82.60
2019-05-16T06:04:19.768Z,119.77
2019-05-16T06:06:50.550Z,134.23
2019-05-16T06:09:28.564Z,120.57
2019-05-16T06:11:52.202Z,120.77
2019-05-16T06:14:22.617Z,105.13
2019-05-16T06:16:52.643Z,153.47
2019-05-16T06:19:22.934Z,156.80
2019-05-16T06:21:53.205Z,96.63
2019-05-16T06:24:23.923Z,80.90
2019-05-16T06:26:54.108Z,145.97
2019-05-16T06:29:24.503Z,69.30
2019-05-16T06:31:54.051Z,139.97
2019-05-16T06:34:35.428Z,136.27
2019-05-16T06:37:05.484Z,130.20
2019-05-16T06:39:42.774Z,97.10
2019-05-16T06:42:09.953Z,111.50
2019-05-16T06:44:40.299Z,85.30
2019-05-16T06:47:19.346Z,101.30
2019-05-16T06:49:42.629Z,70.17
2019-05-16T06:52:13.056Z,110.27
2019-05-16T06:54:42.861Z,77.43
2019-05-16T06:57:13.611Z,95.17
2019-05-16T06:59:44.137Z,72.93
2019-05-16T07:02:29.649Z,53.13
2019-05-16T07:04:50.456Z,64.80
2019-05-16T07:07:21.252Z,103.77
2019-05-16T07:10:00.130Z,46.77
2019-05-16T07:12:22.935Z,38.40
2019-05-16T07:14:53.226Z,36.93
2019-05-16T07:17:23.267Z,37.37
2019-05-16T07:19:53.239Z,41.07
2019-05-16T07:22:23.952Z,42.23
2019-05-16T07:24:54.418Z,27.43
2019-05-16T07:27:25.396Z,33.30
2019-05-16T07:29:58.482Z,31.83
2019-05-16T07:32:31.313Z,33.10
2019-05-16T07:35:02.287Z,32.40
2019-05-16T07:37:41.608Z,30.70
2019-05-16T07:40:20.047Z,26.63
2019-05-16T07:42:43.613Z,31.40
2019-05-16T07:45:16.073Z,30.00
2019-05-16T07:47:46.949Z,30.80
2019-05-16T07:50:20.194Z,26.20
2019-05-16T07:52:52.101Z,30.63
2019-05-16T07:55:26.055Z,25.07
2019-05-16T07:57:56.953Z,26.53
2019-05-16T08:00:45.905Z,19.93
2019-05-16T08:03:00.085Z,16.20
2019-05-16T08:05:33.491Z,13.70
2019-05-16T08:08:03.535Z,11.97
2019-05-16T08:10:40.671Z,10.77
2019-05-16T08:13:06.489Z,10.80
2019-05-16T08:15:36.784Z,8.90
2019-05-16T08:18:06.759Z,10.47
2019-05-16T08:20:37.757Z,8.87
2019-05-16T08:23:10.880Z,9.20
2019-05-16T08:25:41.270Z,8.27
2019-05-16T08:28:11.819Z,7.73
2019-05-16T08:30:42.868Z,6.93
2019-05-16T08:33:13.856Z,7.83
2019-05-16T08:35:44.082Z,8.77
2019-05-16T08:38:16.627Z,9.23
2019-05-16T08:41:06.020Z,9.00
2019-05-16T08:43:24.943Z,10.80
2019-05-16T08:45:55.730Z,14.90
2019-05-16T08:48:27.036Z,15.90
2019-05-16T08:50:57.421Z,16.73
2019-05-16T08:53:31.385Z,17.83
2019-05-16T08:56:02.631Z,21.57
2019-05-16T08:58:34.761Z,22.60
2019-05-16T09:01:07.559Z,27.43
2019-05-16T09:03:40.742Z,29.47
2019-05-16T09:06:11.823Z,31.20
2019-05-16T09:08:43.529Z,26.73
2019-05-16T09:11:29.225Z,24.00
2019-05-16T09:13:47.751Z,23.87
2019-05-16T09:16:22.238Z,25.40
2019-05-16T09:18:52.439Z,24.17
2019-05-16T09:21:22.819Z,31.23
2019-05-16T09:23:53.059Z,31.27
2019-05-16T09:26:23.442Z,37.80
2019-05-16T09:28:56.964Z,39.40
2019-05-16T09:31:27.633Z,47.47
2019-05-16T09:33:58.583Z,46.93
2019-05-16T09:36:29.678Z,47.50
2019-05-16T09:39:04.587Z,46.43
2019-05-16T09:41:53.417Z,45.27
2019-05-16T09:44:11.191Z,45.47
2019-05-16T09:46:41.617Z,40.80
2019-05-16T09:49:19.627Z,36.43
2019-05-16T09:51:46.505Z,43.37
2019-05-16T09:54:20.856Z,45.10
2019-05-16T09:56:51.396Z,42.20
2019-05-16T09:59:22.217Z,41.43
2019-05-16T10:01:52.480Z,48.40
2019-05-16T10:04:27.514Z,47.70
2019-05-16T10:06:57.710Z,40.57
2019-05-16T10:09:41.369Z,46.10
2019-05-16T10:12:15.488Z,39.70
2019-05-16T10:14:47.006Z,42.30
2019-05-16T10:17:18.250Z,49.37
2019-05-16T10:19:48.813Z,46.27
2019-05-16T10:22:20.434Z,44.80
2019-05-16T10:24:53.768Z,42.77
2019-05-16T10:27:26.533Z,41.73
2019-05-16T10:30:01.208Z,47.87
2019-05-16T10:32:31.937Z,42.57
2019-05-16T10:35:02.294Z,40.33
2019-05-16T10:37:33.837Z,40.60
2019-05-16T10:40:07.344Z,39.80
2019-05-16T10:42:38.241Z,36.40
2019-05-16T10:45:09.698Z,38.13
2019-05-16T10:47:40.046Z,36.40
2019-05-16T10:50:10.766Z,34.60
2019-05-16T10:52:42.465Z,36.80
2019-05-16T10:55:13.137Z,38.30
2019-05-16T10:57:47.483Z,47.20
2019-05-16T11:00:42.399Z,40.63
2019-05-16T11:03:01.473Z,36.37
2019-05-16T11:05:33.913Z,36.30
2019-05-16T11:08:02.116Z,37.40
2019-05-16T11:10:34.281Z,41.33
2019-05-16T11:13:04.410Z,42.83
2019-05-16T11:15:37.301Z,42.37
2019-05-16T11:18:07.056Z,41.43
2019-05-16T11:20:37.589Z,48.27
2019-05-16T11:23:10.617Z,47.97
2019-05-16T11:25:40.619Z,45.40
2019-05-16T11:28:12.573Z,39.77
2019-05-16T11:30:43.763Z,34.73
2019-05-16T11:33:13.947Z,36.47
2019-05-16T11:35:47.559Z,35.90
2019-05-16T11:38:17.923Z,39.17
2019-05-16T11:40:48.785Z,37.00
2019-05-16T11:43:21.902Z,36.73
2019-05-16T11:45:52.283Z,31.67
2019-05-16T11:48:25.086Z,30.60
2019-05-16T11:50:53.417Z,37.73
2019-05-16T11:53:23.181Z,38.33
2019-05-16T11:55:57.728Z,32.10
2019-05-16T11:58:27.315Z,37.93
2019-05-16T12:00:57.638Z,36.50
2019-05-16T12:03:29.124Z,36.90
2019-05-16T12:06:01.190Z,34.27
2019-05-16T12:08:30.658Z,32.90
2019-05-16T12:11:00.532Z,36.23
2019-05-16T12:13:32.924Z,29.80
2019-05-16T12:16:03.154Z,30.17
2019-05-16T12:18:33.410Z,32.57
2019-05-16T12:21:03.774Z,30.30
2019-05-16T12:23:37.215Z,28.73
2019-05-16T12:26:08.132Z,28.60
2019-05-16T12:28:39.089Z,29.00
2019-05-16T12:31:09.278Z,27.07
2019-05-16T12:33:39.522Z,27.97
2019-05-16T12:36:09.131Z,27.47
2019-05-16T12:38:39.967Z,25.27
2019-05-16T12:41:10.199Z,24.20
2019-05-16T12:43:48.820Z,23.53
2019-05-16T12:46:14.596Z,23.20
2019-05-16T12:48:47.191Z,20.90
2019-05-16T12:51:17.274Z,23.30
2019-05-16T12:53:47.871Z,24.37
2019-05-16T12:56:19.095Z,21.03
2019-05-16T12:58:50.962Z,22.60
2019-05-16T13:01:21.604Z,23.33
2019-05-16T13:03:57.812Z,23.27
2019-05-16T13:06:28.038Z,21.70
2019-05-16T13:08:57.778Z,23.37
2019-05-16T13:11:29.146Z,24.87
2019-05-16T13:14:06.323Z,23.90
2019-05-16T13:16:32.061Z,23.93
2019-05-16T13:19:03.638Z,25.80
2019-05-16T13:21:33.326Z,23.60
2019-05-16T13:24:03.429Z,24.90
2019-05-16T13:26:33.058Z,23.03
2019-05-16T13:29:03.512Z,24.10
2019-05-16T13:31:37.238Z,24.63
2019-05-16T13:34:07.449Z,25.77
2019-05-16T13:36:39.088Z,26.70
2019-05-16T13:39:12.393Z,25.73
2019-05-16T13:41:43.189Z,26.50
2019-05-16T13:44:18.946Z,23.30
2019-05-16T13:46:48.277Z,24.07
2019-05-16T13:49:18.676Z,24.93
2019-05-16T13:51:49.080Z,21.83
2019-05-16T13:54:19.423Z,22.80
2019-05-16T13:56:50.195Z,22.03
2019-05-16T13:59:20.881Z,23.03
2019-05-16T14:01:51.979Z,22.10
2019-05-16T14:04:22.100Z,21.17
2019-05-16T14:06:56.385Z,22.33
2019-05-16T14:09:27.254Z,19.60
2019-05-16T14:11:58.116Z,21.43
2019-05-16T14:14:37.224Z,18.50
2019-05-16T14:17:00.530Z,17.97
2019-05-16T14:19:31.451Z,17.50
2019-05-16T14:22:01.393Z,18.70
2019-05-16T14:24:31.388Z,18.80
2019-05-16T14:27:03.020Z,19.20
2019-05-16T14:29:34.057Z,21.67
2019-05-16T14:32:04.252Z,21.57
2019-05-16T14:34:38.126Z,19.34
2019-05-16T14:37:07.346Z,19.30
2019-05-16T14:39:38.773Z,18.37
2019-05-16T14:42:09.296Z,18.80
2019-05-16T14:45:01.698Z,17.97
2019-05-16T14:47:11.226Z,19.90
2019-05-16T14:49:44.534Z,19.63
2019-05-16T14:52:16.861Z,18.80
2019-05-16T14:54:47.889Z,19.40
2019-05-16T14:57:17.933Z,18.43
2019-05-16T14:59:48.542Z,19.60
2019-05-16T15:02:18.478Z,18.97
2019-05-16T15:04:49.526Z,17.83
2019-05-16T15:07:19.893Z,18.87
2019-05-16T15:09:50.806Z,19.73
2019-05-16T15:12:21.589Z,19.60
2019-05-16T15:14:54.227Z,18.10
2019-05-16T15:17:27.436Z,19.83
2019-05-16T15:19:59.232Z,18.70
2019-05-16T15:22:29.537Z,20.00
2019-05-16T15:25:00.146Z,18.80
2019-05-16T15:27:32.917Z,17.33
2019-05-16T15:30:02.599Z,18.07
2019-05-16T15:32:32.412Z,18.90
2019-05-16T15:35:02.575Z,18.17
2019-05-16T15:37:32.401Z,17.80
2019-05-16T15:40:02.612Z,17.70
2019-05-16T15:42:32.892Z,18.30
2019-05-16T15:45:03.298Z,17.60
2019-05-16T15:47:37.155Z,18.00
2019-05-16T15:50:08.066Z,16.37
2019-05-16T15:52:39.608Z,17.37
2019-05-16T15:55:10.585Z,17.23
2019-05-16T15:57:40.926Z,17.30
2019-05-16T16:00:12.296Z,17.10
2019-05-16T16:02:42.583Z,16.07
2019-05-16T16:05:12.937Z,17.00
2019-05-16T16:07:43.029Z,15.80
2019-05-16T16:10:13.902Z,19.00
2019-05-16T16:12:44.038Z,18.30
2019-05-16T16:15:14.004Z,17.43
2019-05-16T16:17:43.949Z,15.97
2019-05-16T16:20:16.737Z,16.07
2019-05-16T16:22:46.903Z,17.00
2019-05-16T16:25:17.791Z,17.77
2019-05-16T16:27:47.724Z,17.20
2019-05-16T16:30:18.694Z,20.27
2019-05-16T16:32:48.754Z,19.67
2019-05-16T16:35:18.329Z,19.37
2019-05-16T16:37:47.876Z,19.17
2019-05-16T16:40:19.035Z,17.87
2019-05-16T16:42:49.292Z,21.20
2019-05-16T16:45:20.786Z,19.10
2019-05-16T16:47:51.208Z,18.90
2019-05-16T16:50:22.045Z,17.77
2019-05-16T16:52:51.874Z,18.37
2019-05-16T16:55:22.185Z,19.37
2019-05-16T16:57:55.775Z,17.63
2019-05-16T17:00:27.749Z,19.37
2019-05-16T17:03:05.517Z,19.10
2019-05-16T17:05:28.568Z,20.43
2019-05-16T17:07:58.648Z,20.60
2019-05-16T17:10:28.636Z,19.00
2019-05-16T17:12:58.110Z,19.00
2019-05-16T17:15:28.250Z,19.20
2019-05-16T17:17:58.038Z,17.73
2019-05-16T17:20:27.808Z,18.43
2019-05-16T17:22:58.271Z,17.90
2019-05-16T17:25:28.019Z,19.73
2019-05-16T17:27:58.456Z,18.03
2019-05-16T17:30:29.211Z,17.77
2019-05-16T17:32:59.150Z,18.70
2019-05-16T17:35:28.965Z,19.87
2019-05-16T17:37:59.178Z,21.17
2019-05-16T17:40:29.079Z,22.60
2019-05-16T17:42:58.912Z,21.00
2019-05-16T17:45:29.814Z,20.87
2019-05-16T17:48:00.069Z,21.83
2019-05-16T17:50:30.000Z,23.47
2019-05-16T17:53:00.476Z,28.47
2019-05-16T17:55:30.298Z,30.10
2019-05-16T17:58:01.129Z,25.93
2019-05-16T18:00:31.120Z,31.47
2019-05-16T18:03:01.023Z,32.20
2019-05-16T18:05:30.830Z,33.30
2019-05-16T18:08:01.001Z,35.10
2019-05-16T18:10:30.843Z,32.73
2019-05-16T18:13:01.652Z,35.20
2019-05-16T18:15:31.430Z,39.13
2019-05-16T18:18:01.320Z,33.90
2019-05-16T18:20:32.899Z,34.57
2019-05-16T18:23:03.081Z,33.50
2019-05-16T18:25:32.867Z,32.07
2019-05-16T18:28:03.017Z,38.47
2019-05-16T18:30:32.803Z,33.27
2019-05-16T18:33:02.768Z,30.93
2019-05-16T18:35:32.899Z,29.20
2019-05-16T18:38:03.103Z,36.13
2019-05-16T18:40:33.402Z,31.00
2019-05-16T18:43:02.932Z,31.27
2019-05-16T18:45:32.854Z,34.73
2019-05-16T18:48:03.403Z,29.90
2019-05-16T18:50:33.581Z,34.03
2019-05-16T18:53:03.495Z,32.77
2019-05-16T18:55:33.304Z,34.33
2019-05-16T18:58:05.635Z,34.27
2019-05-16T19:00:37.286Z,39.17
2019-05-16T19:03:07.687Z,37.57
2019-05-16T19:05:37.609Z,43.67
2019-05-16T19:08:07.911Z,47.80
2019-05-16T19:10:38.198Z,44.10
2019-05-16T19:13:08.412Z,46.43
2019-05-16T19:15:38.937Z,48.20
2019-05-16T19:18:08.570Z,43.70
2019-05-16T19:20:38.950Z,46.50
2019-05-16T19:23:09.189Z,51.30
2019-05-16T19:25:39.663Z,45.50
2019-05-16T19:28:09.887Z,47.93
2019-05-16T19:30:40.350Z,48.90
2019-05-16T19:33:10.618Z,53.50
2019-05-16T19:35:40.579Z,146.40
2019-05-16T19:38:10.802Z,117.07
2019-05-16T19:40:40.673Z,162.17
2019-05-16T19:43:10.687Z,166.73
2019-05-16T19:45:43.210Z,112.40
2019-05-16T19:48:13.943Z,162.47
2019-05-16T19:50:43.450Z,156.37
2019-05-16T19:53:13.649Z,146.97
2019-05-16T19:55:43.134Z,135.23
2019-05-16T19:58:12.654Z,205.30
2019-05-16T20:00:43.509Z,137.57
2019-05-16T20:03:13.516Z,243.50
2019-05-16T20:05:43.968Z,169.37
2019-05-16T20:08:13.660Z,212.40
2019-05-16T20:10:43.965Z,221.50
2019-05-16T20:13:14.017Z,202.50
2019-05-16T20:15:43.850Z,202.97
2019-05-16T20:18:18.233Z,195.80
2019-05-16T20:20:47.220Z,280.17
2019-05-16T20:23:18.733Z,209.27
2019-05-16T20:25:48.831Z,302.80
2019-05-16T20:28:18.583Z,268.97
2019-05-16T20:30:49.018Z,251.70
2019-05-16T20:33:18.948Z,197.03
2019-05-16T20:35:49.519Z,273.50
2019-05-16T20:38:19.779Z,304.40
2019-05-16T20:40:50.115Z,279.60
2019-05-16T20:43:21.365Z,292.30
2019-05-16T20:45:51.487Z,285.70
2019-05-16T20:48:21.300Z,245.17
2019-05-16T20:50:51.655Z,221.23
2019-05-16T20:53:21.601Z,190.60
2019-05-16T20:55:52.555Z,272.13
2019-05-16T20:58:22.983Z,213.80
2019-05-16T21:00:53.275Z,234.30
2019-05-16T21:03:22.763Z,229.93
2019-05-16T21:05:52.991Z,206.70
2019-05-16T21:08:22.769Z,259.67
2019-05-16T21:10:52.716Z,232.20
2019-05-16T21:13:23.033Z,352.10
2019-05-16T21:15:53.560Z,372.03
2019-05-16T21:18:23.796Z,304.97
2019-05-16T21:20:53.689Z,243.37
2019-05-16T21:23:23.243Z,335.83
2019-05-16T21:25:53.219Z,273.13
2019-05-16T21:28:26.340Z,320.10
2019-05-16T21:30:56.953Z,198.43
2019-05-16T21:33:27.243Z,223.50
2019-05-16T21:35:57.348Z,301.27
2019-05-16T21:38:27.994Z,212.90
2019-05-16T21:40:58.386Z,243.90
2019-05-16T21:43:28.498Z,232.10
2019-05-16T21:45:58.662Z,250.37
2019-05-16T21:48:28.264Z,220.40
2019-05-16T21:50:57.822Z,215.77
2019-05-16T21:53:30.109Z,227.37
2019-05-16T21:55:59.508Z,214.37
2019-05-16T21:58:29.498Z,287.90
2019-05-16T22:01:00.383Z,291.17
2019-05-16T22:03:30.146Z,234.27
2019-05-16T22:06:00.450Z,260.47
2019-05-16T22:08:30.573Z,250.00
2019-05-16T22:11:00.751Z,227.70
2019-05-16T22:13:31.584Z,214.87
2019-05-16T22:16:04.878Z,213.20
2019-05-16T22:18:38.116Z,218.17
2019-05-16T22:21:07.596Z,166.47
2019-05-16T22:23:37.512Z,152.33
2019-05-16T22:26:08.608Z,187.60
2019-05-16T22:28:38.379Z,186.23
2019-05-16T22:31:08.185Z,200.07
2019-05-16T22:33:39.278Z,205.50
2019-05-16T22:36:09.502Z,142.57
2019-05-16T22:38:40.307Z,166.23
2019-05-16T22:41:10.865Z,160.13
2019-05-16T22:43:40.787Z,134.03
2019-05-16T22:46:10.597Z,150.03
2019-05-16T22:48:40.512Z,191.80
2019-05-16T22:51:11.507Z,138.43
2019-05-16T22:53:44.235Z,124.70
2019-05-16T22:56:14.562Z,122.23
2019-05-16T22:58:46.838Z,130.47
2019-05-16T23:01:17.602Z,126.37
2019-05-16T23:03:47.907Z,106.07
2019-05-16T23:06:20.798Z,110.83
2019-05-16T23:08:52.718Z,94.13
2019-05-16T23:11:22.650Z,109.60
2019-05-16T23:13:52.826Z,84.13
2019-05-16T23:16:28.199Z,103.47
2019-05-16T23:18:58.073Z,113.83
2019-05-16T23:21:27.867Z,75.33
2019-05-16T23:23:58.340Z,67.37
2019-05-16T23:26:28.765Z,102.13
2019-05-16T23:28:59.436Z,86.73
2019-05-16T23:31:29.247Z,98.90
2019-05-16T23:33:59.875Z,120.50
2019-05-16T23:36:30.093Z,77.00
2019-05-16T23:39:00.618Z,106.17
2019-05-16T23:41:30.478Z,84.57
2019-05-16T23:44:00.587Z,70.20
2019-05-16T23:46:30.994Z,64.63
2019-05-16T23:49:00.817Z,86.83
2019-05-16T23:51:30.651Z,77.70
2019-05-16T23:54:01.098Z,85.33
2019-05-16T23:56:30.914Z,94.20
2019-05-16T23:59:00.739Z,83.53
